createdAt,value
2018-07-26T00:00:08.297Z,26.30
2018-07-26T00:02:35.193Z,26.30
2018-07-26T00:05:02.164Z,26.30
2018-07-26T00:07:29.142Z,26.20
2018-07-26T00:09:55.991Z,26.20
2018-07-26T00:12:22.941Z,26.10
2018-07-26T00:14:49.857Z,26.10
2018-07-26T00:17:16.808Z,26.00
2018-07-26T00:19:43.666Z,26.00
2018-07-26T00:22:10.523Z,25.90
2018-07-26T00:24:37.469Z,26.00
2018-07-26T00:27:04.396Z,25.90
2018-07-26T00:29:31.329Z,25.90
2018-07-26T00:31:58.192Z,25.90
2018-07-26T00:34:25.136Z,25.70
2018-07-26T00:36:51.984Z,25.70
2018-07-26T00:39:18.861Z,25.70
2018-07-26T00:41:45.912Z,25.50
2018-07-26T00:44:12.761Z,25.40
2018-07-26T00:46:39.716Z,25.30
2018-07-26T00:49:06.567Z,25.20
2018-07-26T00:51:33.421Z,25.20
2018-07-26T00:54:00.364Z,25.10
2018-07-26T00:56:27.251Z,25.00
2018-07-26T00:58:54.191Z,25.10
2018-07-26T01:01:21.085Z,25.10
2018-07-26T01:03:48.041Z,25.00
2018-07-26T01:06:14.906Z,25.00
2018-07-26T01:08:41.787Z,25.00
2018-07-26T01:11:09.456Z,25.00
2018-07-26T01:13:37.088Z,24.90
2018-07-26T01:16:04.104Z,24.90
2018-07-26T01:18:30.958Z,25.00
2018-07-26T01:20:57.848Z,24.90
2018-07-26T01:23:25.535Z,24.90
2018-07-26T01:25:52.543Z,24.90
2018-07-26T01:28:19.592Z,24.90
2018-07-26T01:30:46.437Z,24.90
2018-07-26T01:33:13.285Z,24.90
2018-07-26T01:35:40.215Z,24.90
2018-07-26T01:38:07.068Z,24.90
2018-07-26T01:40:34.007Z,25.00
2018-07-26T01:43:16.864Z,25.10
2018-07-26T01:45:43.820Z,25.20
2018-07-26T01:48:10.670Z,25.20
2018-07-26T01:50:37.506Z,25.20
2018-07-26T01:53:04.425Z,25.10
2018-07-26T01:55:31.272Z,25.00
2018-07-26T01:57:58.232Z,24.90
2018-07-26T02:00:25.096Z,24.90
2018-07-26T02:02:51.968Z,24.90
2018-07-26T02:05:18.950Z,24.90
2018-07-26T02:07:46.553Z,24.80
2018-07-26T02:10:13.500Z,24.80
2018-07-26T02:12:40.369Z,24.80
2018-07-26T02:15:07.323Z,24.70
2018-07-26T02:17:34.180Z,24.60
2018-07-26T02:20:01.174Z,24.50
2018-07-26T02:22:28.029Z,24.30
2018-07-26T02:24:54.980Z,24.20
2018-07-26T02:27:21.829Z,24.20
2018-07-26T02:29:48.673Z,24.20
2018-07-26T02:32:15.592Z,24.20
2018-07-26T02:34:42.448Z,24.20
2018-07-26T02:37:09.392Z,24.10
2018-07-26T02:39:36.233Z,24.10
2018-07-26T02:42:03.181Z,23.90
2018-07-26T02:44:30.120Z,23.90
2018-07-26T02:46:56.964Z,23.90
2018-07-26T02:49:23.891Z,23.90
2018-07-26T02:51:50.753Z,23.90
2018-07-26T02:54:17.590Z,23.70
2018-07-26T02:56:44.512Z,23.90
2018-07-26T02:59:11.368Z,23.90
2018-07-26T03:01:38.340Z,24.00
2018-07-26T03:04:05.228Z,24.00
2018-07-26T03:06:32.109Z,24.00
2018-07-26T03:08:59.088Z,24.00
2018-07-26T03:11:25.941Z,24.10
2018-07-26T03:13:52.788Z,24.10
2018-07-26T03:16:19.725Z,24.20
2018-07-26T03:18:46.580Z,24.10
2018-07-26T03:21:13.507Z,24.00
2018-07-26T03:23:40.349Z,23.90
2018-07-26T03:26:07.297Z,23.70
2018-07-26T03:28:34.152Z,23.60
2018-07-26T03:31:00.994Z,23.50
2018-07-26T03:33:27.943Z,23.40
2018-07-26T03:35:54.807Z,23.30
2018-07-26T03:38:21.653Z,23.30
2018-07-26T03:40:48.578Z,23.30
2018-07-26T03:43:15.512Z,23.30
2018-07-26T03:45:42.457Z,23.20
2018-07-26T03:48:09.300Z,23.20
2018-07-26T03:50:36.141Z,23.30
2018-07-26T03:53:03.104Z,23.30
2018-07-26T03:55:29.952Z,23.30
2018-07-26T03:57:56.964Z,23.10
2018-07-26T04:00:23.796Z,23.00
2018-07-26T04:02:50.679Z,22.90
2018-07-26T04:05:28.487Z,23.00
2018-07-26T04:07:55.367Z,23.10
2018-07-26T04:10:22.298Z,23.30
2018-07-26T04:12:49.902Z,23.40
2018-07-26T04:15:16.836Z,23.30
2018-07-26T04:17:43.689Z,23.30
2018-07-26T04:20:10.585Z,23.30
2018-07-26T04:22:38.277Z,23.40
2018-07-26T04:25:05.145Z,23.40
2018-07-26T04:27:46.776Z,23.50
2018-07-26T04:30:14.618Z,23.50
2018-07-26T04:32:41.560Z,23.70
2018-07-26T04:35:08.410Z,23.80
2018-07-26T04:37:35.352Z,23.90
2018-07-26T04:40:02.215Z,24.00
2018-07-26T04:42:29.069Z,24.30
2018-07-26T04:44:56.093Z,24.60
2018-07-26T04:47:22.948Z,25.10
2018-07-26T04:49:49.884Z,25.70
2018-07-26T04:52:16.740Z,26.90
2018-07-26T04:54:43.658Z,28.70
2018-07-26T04:57:10.605Z,30.50
2018-07-26T04:59:37.465Z,32.50
2018-07-26T05:02:04.474Z,34.20
2018-07-26T05:04:31.348Z,34.40
2018-07-26T05:06:58.200Z,34.90
2018-07-26T05:09:25.161Z,36.60
2018-07-26T05:11:52.020Z,37.80
2018-07-26T05:14:19.164Z,38.40
2018-07-26T05:16:46.013Z,38.80
2018-07-26T05:19:12.975Z,38.90
2018-07-26T05:21:39.919Z,37.90
2018-07-26T05:24:07.590Z,34.80
2018-07-26T05:26:34.764Z,34.70
2018-07-26T05:29:01.614Z,34.30
2018-07-26T05:31:28.650Z,34.10
2018-07-26T05:33:55.605Z,35.80
2018-07-26T05:36:22.476Z,37.70
2018-07-26T05:38:49.454Z,39.50
2018-07-26T05:41:17.071Z,36.40
2018-07-26T05:43:44.110Z,36.30
2018-07-26T05:46:11.016Z,34.70
2018-07-26T05:48:38.705Z,32.20
2018-07-26T05:51:05.585Z,32.10
2018-07-26T05:53:32.438Z,31.10
2018-07-26T05:55:59.443Z,30.90
2018-07-26T05:58:26.303Z,30.20
2018-07-26T06:00:53.338Z,29.90
2018-07-26T06:03:20.208Z,29.80
2018-07-26T06:05:47.154Z,29.60
2018-07-26T06:08:14.160Z,29.80
2018-07-26T06:10:41.017Z,32.40
2018-07-26T06:13:07.950Z,32.70
2018-07-26T06:15:34.812Z,32.60
2018-07-26T06:18:01.773Z,33.20
2018-07-26T06:20:28.703Z,32.10
2018-07-26T06:22:55.553Z,31.40
2018-07-26T06:25:22.512Z,29.90
2018-07-26T06:27:49.389Z,28.40
2018-07-26T06:30:17.112Z,27.40
2018-07-26T06:32:43.976Z,27.30
2018-07-26T06:35:10.821Z,26.90
2018-07-26T06:37:37.851Z,26.70
2018-07-26T06:40:04.809Z,26.80
2018-07-26T06:42:31.797Z,27.10
2018-07-26T06:44:59.557Z,27.40
2018-07-26T06:47:27.214Z,27.00
2018-07-26T06:49:54.916Z,27.00
2018-07-26T06:52:21.834Z,27.00
2018-07-26T06:54:49.533Z,26.80
2018-07-26T06:57:16.413Z,26.80
2018-07-26T06:59:43.284Z,26.90
2018-07-26T07:02:11.229Z,26.80
2018-07-26T07:04:38.126Z,26.80
2018-07-26T07:07:05.155Z,27.00
2018-07-26T07:09:32.004Z,27.20
2018-07-26T07:11:58.887Z,27.50
2018-07-26T07:14:25.853Z,27.70
2018-07-26T07:16:52.776Z,28.00
2018-07-26T07:19:19.736Z,28.40
2018-07-26T07:21:46.634Z,28.10
2018-07-26T07:24:13.566Z,28.30
2018-07-26T07:26:41.416Z,28.50
2018-07-26T07:29:08.289Z,28.40
2018-07-26T07:31:35.254Z,28.80
2018-07-26T07:34:02.153Z,29.00
2018-07-26T07:36:29.043Z,28.90
2018-07-26T07:38:56.009Z,29.00
2018-07-26T07:41:22.898Z,28.90
2018-07-26T07:43:49.896Z,29.00
2018-07-26T07:46:16.850Z,29.00
2018-07-26T07:48:43.719Z,29.10
2018-07-26T07:51:10.665Z,29.10
2018-07-26T07:53:37.597Z,29.30
2018-07-26T07:56:04.617Z,31.30
2018-07-26T07:58:31.474Z,31.60
2018-07-26T08:00:58.370Z,31.80
2018-07-26T08:03:25.313Z,31.60
2018-07-26T08:05:52.273Z,31.10
2018-07-26T08:08:19.245Z,31.20
2018-07-26T08:10:46.118Z,31.60
2018-07-26T08:13:12.975Z,31.20
2018-07-26T08:15:39.937Z,31.40
2018-07-26T08:18:06.884Z,32.70
2018-07-26T08:20:34.589Z,33.10
2018-07-26T08:23:01.453Z,33.00
2018-07-26T08:25:28.318Z,33.40
2018-07-26T08:27:55.264Z,37.70
2018-07-26T08:30:22.168Z,38.90
2018-07-26T08:32:49.125Z,40.80
2018-07-26T08:35:16.019Z,40.30
2018-07-26T08:37:43.717Z,39.10
2018-07-26T08:40:10.581Z,39.10
2018-07-26T08:42:37.452Z,37.90
2018-07-26T08:45:04.500Z,38.30
2018-07-26T08:47:31.468Z,39.50
2018-07-26T08:49:59.168Z,40.50
2018-07-26T08:52:26.027Z,40.40
2018-07-26T08:54:52.905Z,40.90
2018-07-26T08:57:19.865Z,38.90
2018-07-26T08:59:46.729Z,40.10
2018-07-26T09:02:13.718Z,38.40
2018-07-26T09:04:40.628Z,39.00
2018-07-26T09:07:07.518Z,39.10
2018-07-26T09:09:34.469Z,38.40
2018-07-26T09:12:01.341Z,38.90
2018-07-26T09:14:29.108Z,38.80
2018-07-26T09:16:56.773Z,39.30
2018-07-26T09:19:23.673Z,39.30
2018-07-26T09:21:50.621Z,39.10
2018-07-26T09:24:17.523Z,38.50
2018-07-26T09:26:44.514Z,39.40
2018-07-26T09:29:11.374Z,39.20
2018-07-26T09:31:38.266Z,36.90
2018-07-26T09:34:05.266Z,38.20
2018-07-26T09:36:32.165Z,39.30
2018-07-26T09:38:59.140Z,39.90
2018-07-26T09:41:26.017Z,40.30
2018-07-26T09:43:53.710Z,38.50
2018-07-26T09:46:20.578Z,38.50
2018-07-26T09:48:47.635Z,37.60
2018-07-26T09:51:14.537Z,38.70
2018-07-26T09:53:41.512Z,38.10
2018-07-26T09:56:08.478Z,37.00
2018-07-26T09:58:35.372Z,38.10
2018-07-26T10:01:02.477Z,39.30
2018-07-26T10:03:29.430Z,39.90
2018-07-26T10:05:56.289Z,39.00
2018-07-26T10:08:24.003Z,39.40
2018-07-26T10:10:50.885Z,39.40
2018-07-26T10:13:17.798Z,39.00
2018-07-26T10:15:44.860Z,36.60
2018-07-26T10:18:11.713Z,37.60
2018-07-26T10:20:38.622Z,37.80
2018-07-26T10:23:05.643Z,37.00
2018-07-26T10:25:32.513Z,36.20
2018-07-26T10:27:59.486Z,37.60
2018-07-26T10:30:26.334Z,37.30
2018-07-26T10:32:53.213Z,38.10
2018-07-26T10:35:20.914Z,38.60
2018-07-26T10:37:47.781Z,38.60
2018-07-26T10:40:14.757Z,38.60
2018-07-26T10:42:42.371Z,38.40
2018-07-26T10:45:09.237Z,38.30
2018-07-26T10:47:36.176Z,37.70
2018-07-26T10:50:03.315Z,37.70
2018-07-26T10:52:30.273Z,37.30
2018-07-26T10:54:57.132Z,38.30
2018-07-26T10:57:24.005Z,38.30
2018-07-26T10:59:51.686Z,38.40
2018-07-26T11:02:18.565Z,38.40
2018-07-26T11:04:45.551Z,37.60
2018-07-26T11:07:13.153Z,38.60
2018-07-26T11:09:40.080Z,38.60
2018-07-26T11:12:07.082Z,37.80
2018-07-26T11:14:34.023Z,37.70
2018-07-26T11:17:00.876Z,38.40
2018-07-26T11:19:27.816Z,37.20
2018-07-26T11:21:54.682Z,35.90
2018-07-26T11:24:21.717Z,36.60
2018-07-26T11:26:48.612Z,37.60
2018-07-26T11:29:15.463Z,36.40
2018-07-26T11:31:42.506Z,37.10
2018-07-26T11:34:09.369Z,37.20
2018-07-26T11:36:36.329Z,37.30
2018-07-26T11:39:03.348Z,36.60
2018-07-26T11:41:30.318Z,37.30
2018-07-26T11:43:57.255Z,36.60
2018-07-26T11:46:24.121Z,37.40
2018-07-26T11:48:51.068Z,37.50
2018-07-26T11:51:18.063Z,37.80
2018-07-26T11:53:44.954Z,37.50
2018-07-26T11:56:11.935Z,37.80
2018-07-26T11:58:38.817Z,37.50
2018-07-26T12:01:05.854Z,36.50
2018-07-26T12:03:32.732Z,36.80
2018-07-26T12:05:59.596Z,36.90
2018-07-26T12:08:26.656Z,37.00
2018-07-26T12:10:53.515Z,36.90
2018-07-26T12:13:20.497Z,37.20
2018-07-26T12:15:47.354Z,36.80
2018-07-26T12:18:14.229Z,37.20
2018-07-26T12:20:41.958Z,37.70
2018-07-26T12:23:18.820Z,37.60
2018-07-26T12:25:45.767Z,37.40
2018-07-26T12:28:12.616Z,37.10
2018-07-26T12:30:39.577Z,36.60
2018-07-26T12:33:06.441Z,36.00
2018-07-26T12:35:33.296Z,37.20
2018-07-26T12:38:01.001Z,38.20
2018-07-26T12:40:27.860Z,38.20
2018-07-26T12:42:54.813Z,38.50
2018-07-26T12:45:21.669Z,37.20
2018-07-26T12:47:48.568Z,37.40
2018-07-26T12:50:15.548Z,36.80
2018-07-26T12:52:42.517Z,36.30
2018-07-26T12:55:09.521Z,37.20
2018-07-26T12:57:36.397Z,37.70
2018-07-26T13:00:03.377Z,38.10
2018-07-26T13:02:31.082Z,37.00
2018-07-26T13:04:57.957Z,36.90
2018-07-26T13:07:24.951Z,37.00
2018-07-26T13:09:51.812Z,36.20
2018-07-26T13:12:18.687Z,36.90
2018-07-26T13:14:45.688Z,36.60
2018-07-26T13:17:12.577Z,37.50
2018-07-26T13:19:39.545Z,38.00
2018-07-26T13:22:06.416Z,38.30
2018-07-26T13:24:33.318Z,38.60
2018-07-26T13:27:00.263Z,38.10
2018-07-26T13:29:27.112Z,38.40
2018-07-26T13:31:54.160Z,38.80
2018-07-26T13:34:21.072Z,38.50
2018-07-26T13:36:47.969Z,38.90
2018-07-26T13:39:15.709Z,39.70
2018-07-26T13:41:42.580Z,39.70
2018-07-26T13:44:10.306Z,39.90
2018-07-26T13:46:37.179Z,39.90
2018-07-26T13:49:04.808Z,39.60
2018-07-26T13:51:31.871Z,39.50
2018-07-26T13:53:58.745Z,39.60
2018-07-26T13:56:25.720Z,39.00
2018-07-26T13:58:52.590Z,38.70
2018-07-26T14:01:19.466Z,38.50
2018-07-26T14:03:46.421Z,37.60
2018-07-26T14:06:14.041Z,37.10
2018-07-26T14:08:41.014Z,37.00
2018-07-26T14:11:07.865Z,37.00
2018-07-26T14:13:34.721Z,36.60
2018-07-26T14:16:02.541Z,36.80
2018-07-26T14:18:29.384Z,36.80
2018-07-26T14:20:56.353Z,36.60
2018-07-26T14:23:23.294Z,36.80
2018-07-26T14:25:50.174Z,36.70
2018-07-26T14:28:17.129Z,36.30
2018-07-26T14:30:44.070Z,35.90
2018-07-26T14:33:11.037Z,35.80
2018-07-26T14:35:37.922Z,36.20
2018-07-26T14:38:04.937Z,36.30
2018-07-26T14:40:31.834Z,36.80
2018-07-26T14:42:59.505Z,36.50
2018-07-26T14:45:27.217Z,37.20
2018-07-26T14:47:54.135Z,37.10
2018-07-26T14:50:21.169Z,37.60
2018-07-26T14:52:48.134Z,37.50
2018-07-26T14:55:14.984Z,37.40
2018-07-26T14:57:42.032Z,37.70
2018-07-26T15:00:08.982Z,37.60
2018-07-26T15:02:35.941Z,36.60
2018-07-26T15:05:02.884Z,36.80
2018-07-26T15:07:29.849Z,36.60
2018-07-26T15:09:56.848Z,36.50
2018-07-26T15:12:23.722Z,36.20
2018-07-26T15:14:50.735Z,35.90
2018-07-26T15:17:17.600Z,35.80
2018-07-26T15:19:44.613Z,35.90
2018-07-26T15:22:12.213Z,36.70
2018-07-26T15:24:39.100Z,36.70
2018-07-26T15:27:06.852Z,36.60
2018-07-26T15:29:33.724Z,36.60
2018-07-26T15:32:00.707Z,36.90
2018-07-26T15:34:27.588Z,36.50
2018-07-26T15:36:54.561Z,36.60
2018-07-26T15:39:22.246Z,36.40
2018-07-26T15:41:49.101Z,36.40
2018-07-26T15:44:16.056Z,36.60
2018-07-26T15:46:42.944Z,36.60
2018-07-26T15:49:09.813Z,36.70
2018-07-26T15:51:37.581Z,36.00
2018-07-26T15:54:04.749Z,36.00
2018-07-26T15:56:31.644Z,35.50
2018-07-26T15:58:58.636Z,35.20
2018-07-26T16:01:25.500Z,34.80
2018-07-26T16:03:52.514Z,34.40
2018-07-26T16:06:19.452Z,34.40
2018-07-26T16:08:46.386Z,34.00
2018-07-26T16:11:14.088Z,33.70
2018-07-26T16:13:40.942Z,33.70
2018-07-26T16:16:07.914Z,33.60
2018-07-26T16:18:34.773Z,33.70
2018-07-26T16:21:01.648Z,33.60
2018-07-26T16:23:28.612Z,33.80
2018-07-26T16:25:55.530Z,33.80
2018-07-26T16:28:22.500Z,34.30
2018-07-26T16:30:49.484Z,34.30
2018-07-26T16:33:18.810Z,34.60
2018-07-26T16:35:45.909Z,35.00
2018-07-26T16:38:12.789Z,35.30
2018-07-26T16:40:39.846Z,34.70
2018-07-26T16:43:06.812Z,34.90
2018-07-26T16:45:33.698Z,34.60
2018-07-26T16:48:00.654Z,34.90
2018-07-26T16:50:27.553Z,35.20
2018-07-26T16:52:55.285Z,34.90
2018-07-26T16:55:22.437Z,34.90
2018-07-26T16:57:49.301Z,35.10
2018-07-26T17:00:16.292Z,35.20
2018-07-26T17:02:43.152Z,35.30
2018-07-26T17:05:10.140Z,35.30
2018-07-26T17:07:37.057Z,35.00
2018-07-26T17:10:04.012Z,35.10
2018-07-26T17:12:31.067Z,35.10
2018-07-26T17:14:57.938Z,35.20
2018-07-26T17:17:24.943Z,35.10
2018-07-26T17:19:51.830Z,34.90
2018-07-26T17:22:18.708Z,34.80
2018-07-26T17:24:45.678Z,34.90
2018-07-26T17:27:12.545Z,34.50
2018-07-26T17:29:39.533Z,34.70
2018-07-26T17:32:06.435Z,34.80
2018-07-26T17:34:33.320Z,34.90
2018-07-26T17:37:00.294Z,34.70
2018-07-26T17:39:27.201Z,34.50
2018-07-26T17:41:54.165Z,34.30
2018-07-26T17:44:21.026Z,34.30
2018-07-26T17:46:47.909Z,34.40
2018-07-26T17:49:14.865Z,34.30
2018-07-26T17:51:41.723Z,34.30
2018-07-26T17:54:08.684Z,34.20
2018-07-26T17:56:35.660Z,33.90
2018-07-26T17:59:02.656Z,33.80
2018-07-26T18:01:29.529Z,33.90
2018-07-26T18:03:56.372Z,33.80
2018-07-26T18:06:23.321Z,33.80
2018-07-26T18:08:50.189Z,33.60
2018-07-26T18:11:17.209Z,33.60
2018-07-26T18:13:44.075Z,33.40
2018-07-26T18:16:10.933Z,33.50
2018-07-26T18:18:37.871Z,33.40
2018-07-26T18:21:04.772Z,33.40
2018-07-26T18:23:31.776Z,33.50
2018-07-26T18:25:58.633Z,33.30
2018-07-26T18:28:26.229Z,33.40
2018-07-26T18:30:53.224Z,33.40
2018-07-26T18:33:20.133Z,33.20
2018-07-26T18:35:47.111Z,33.20
2018-07-26T18:38:13.993Z,33.20
2018-07-26T18:40:40.925Z,33.00
2018-07-26T18:43:07.880Z,33.00
2018-07-26T18:45:34.741Z,32.90
2018-07-26T18:48:01.737Z,32.70
2018-07-26T18:50:28.594Z,32.60
2018-07-26T18:52:56.257Z,32.60
2018-07-26T18:55:23.264Z,32.60
2018-07-26T18:57:50.219Z,32.50
2018-07-26T19:00:17.384Z,32.60
2018-07-26T19:02:44.256Z,32.50
2018-07-26T19:05:11.131Z,32.20
2018-07-26T19:07:38.176Z,32.30
2018-07-26T19:10:05.134Z,32.20
2018-07-26T19:12:32.237Z,32.10
2018-07-26T19:14:59.899Z,31.70
2018-07-26T19:17:26.823Z,31.60
2018-07-26T19:19:53.829Z,31.60
2018-07-26T19:22:20.706Z,31.40
2018-07-26T19:24:47.777Z,31.40
2018-07-26T19:27:14.634Z,31.30
2018-07-26T19:29:42.386Z,31.20
2018-07-26T19:32:09.433Z,31.20
2018-07-26T19:34:36.307Z,31.20
2018-07-26T19:37:03.413Z,31.10
2018-07-26T19:39:30.304Z,31.00
2018-07-26T19:41:57.177Z,30.90
2018-07-26T19:44:24.158Z,30.90
2018-07-26T19:46:51.260Z,30.90
2018-07-26T19:49:18.132Z,30.70
2018-07-26T19:51:45.116Z,30.70
2018-07-26T19:54:12.036Z,30.70
2018-07-26T19:56:39.864Z,30.60
2018-07-26T19:59:06.784Z,30.60
2018-07-26T20:01:33.700Z,30.50
2018-07-26T20:04:00.736Z,30.50
2018-07-26T20:06:27.577Z,30.40
2018-07-26T20:08:54.480Z,30.30
2018-07-26T20:11:21.426Z,30.30
2018-07-26T20:13:48.273Z,30.30
2018-07-26T20:16:15.133Z,30.20
2018-07-26T20:18:42.123Z,30.10
2018-07-26T20:21:09.030Z,30.20
2018-07-26T20:23:35.989Z,30.10
2018-07-26T20:26:03.020Z,30.10
2018-07-26T20:28:29.896Z,30.10
2018-07-26T20:30:56.775Z,30.10
2018-07-26T20:33:23.731Z,30.10
2018-07-26T20:35:50.609Z,30.10
2018-07-26T20:38:17.552Z,30.10
2018-07-26T20:40:44.458Z,30.10
2018-07-26T20:43:11.326Z,30.00
2018-07-26T20:45:38.273Z,30.00
2018-07-26T20:48:05.170Z,29.90
2018-07-26T20:50:32.954Z,29.90
2018-07-26T20:52:59.822Z,29.80
2018-07-26T20:55:26.710Z,29.80
2018-07-26T20:57:53.745Z,29.70
2018-07-26T21:00:20.613Z,29.60
2018-07-26T21:02:48.320Z,29.50
2018-07-26T21:05:15.239Z,29.40
2018-07-26T21:07:42.288Z,29.30
2018-07-26T21:10:09.344Z,29.30
2018-07-26T21:12:38.225Z,29.20
2018-07-26T21:15:06.027Z,29.10
2018-07-26T21:17:32.942Z,29.10
2018-07-26T21:19:59.835Z,29.00
2018-07-26T21:22:26.839Z,29.00
2018-07-26T21:24:54.576Z,28.90
2018-07-26T21:27:22.274Z,28.80
2018-07-26T21:29:49.137Z,28.70
2018-07-26T21:32:16.090Z,28.80
2018-07-26T21:34:43.007Z,28.70
2018-07-26T21:37:09.882Z,28.60
2018-07-26T21:39:36.817Z,28.50
2018-07-26T21:42:03.723Z,28.50
2018-07-26T21:44:30.720Z,28.50
2018-07-26T21:46:58.373Z,28.30
2018-07-26T21:49:25.327Z,28.30
2018-07-26T21:51:52.240Z,28.30
2018-07-26T21:54:19.109Z,28.30
2018-07-26T21:56:46.042Z,28.20
2018-07-26T21:59:13.033Z,28.20
2018-07-26T22:01:39.922Z,28.20
2018-07-26T22:04:06.909Z,28.10
2018-07-26T22:06:33.774Z,28.10
2018-07-26T22:09:00.740Z,28.00
2018-07-26T22:11:28.353Z,28.00
2018-07-26T22:13:55.222Z,27.90
2018-07-26T22:16:22.179Z,27.90
2018-07-26T22:18:49.827Z,27.80
2018-07-26T22:21:16.785Z,27.80
2018-07-26T22:23:44.409Z,27.80
2018-07-26T22:26:11.274Z,27.80
2018-07-26T22:28:38.300Z,27.80
2018-07-26T22:31:05.164Z,27.70
2018-07-26T22:33:32.104Z,27.70
2018-07-26T22:35:59.769Z,27.60
2018-07-26T22:38:26.676Z,27.60
2018-07-26T22:40:53.658Z,27.60
2018-07-26T22:43:20.534Z,27.50
2018-07-26T22:45:48.229Z,27.40
2018-07-26T22:48:15.244Z,27.30
2018-07-26T22:50:42.089Z,27.30
2018-07-26T22:53:09.028Z,27.30
2018-07-26T22:55:36.641Z,27.30
2018-07-26T22:58:03.708Z,27.30
2018-07-26T23:00:30.587Z,27.30
2018-07-26T23:02:58.201Z,27.00
2018-07-26T23:05:25.190Z,27.00
2018-07-26T23:07:52.789Z,26.80
2018-07-26T23:10:19.776Z,26.80
2018-07-26T23:12:46.665Z,26.70
2018-07-26T23:15:13.562Z,26.70
2018-07-26T23:17:40.493Z,26.80
2018-07-26T23:20:07.392Z,26.90
2018-07-26T23:22:34.323Z,26.90
2018-07-26T23:25:01.929Z,26.90
2018-07-26T23:27:28.885Z,26.90
2018-07-26T23:29:55.765Z,26.80
2018-07-26T23:32:22.652Z,26.90
2018-07-26T23:34:49.593Z,26.80
2018-07-26T23:37:16.466Z,26.70
2018-07-26T23:39:43.424Z,26.70
2018-07-26T23:42:10.269Z,26.60
2018-07-26T23:44:37.158Z,26.60
2018-07-26T23:47:04.197Z,26.60
2018-07-26T23:49:31.805Z,26.60
2018-07-26T23:51:58.766Z,26.60
2018-07-26T23:54:25.643Z,26.60
2018-07-26T23:56:53.332Z,26.60
2018-07-26T23:59:20.309Z,26.60
